sensor_id;sensor_type;location;lat;lon;timestamp;P1;durP1;ratioP1;P2;durP2;ratioP2
2213;SDS011;1113;42.018;23.986;2024-01-07T00:00:32;20.90;;;12.53;;
2213;SDS011;1113;42.018;23.986;2024-01-07T00:02:59;16.43;;;10.60;;
2213;SDS011;1113;42.018;23.986;2024-01-07T00:05:26;15.83;;;9.53;;
2213;SDS011;1113;42.018;23.986;2024-01-07T00:07:53;12.40;;;8.70;;
2213;SDS011;1113;42.018;23.986;2024-01-07T00:10:20;13.53;;;9.10;;
2213;SDS011;1113;42.018;23.986;2024-01-07T00:12:48;12.60;;;7.10;;
2213;SDS011;1113;42.018;23.986;2024-01-07T00:15:17;10.80;;;7.57;;
2213;SDS011;1113;42.018;23.986;2024-01-07T00:17:43;14.17;;;8.47;;
2213;SDS011;1113;42.018;23.986;2024-01-07T00:20:11;17.20;;;11.50;;
2213;SDS011;1113;42.018;23.986;2024-01-07T00:22:38;29.97;;;16.40;;
2213;SDS011;1113;42.018;23.986;2024-01-07T00:25:05;23.90;;;16.73;;
2213;SDS011;1113;42.018;23.986;2024-01-07T00:27:32;24.40;;;14.77;;
2213;SDS011;1113;42.018;23.986;2024-01-07T00:30:00;26.40;;;15.00;;
2213;SDS011;1113;42.018;23.986;2024-01-07T00:32:27;24.27;;;15.57;;
2213;SDS011;1113;42.018;23.986;2024-01-07T00:34:54;25.33;;;15.53;;
2213;SDS011;1113;42.018;23.986;2024-01-07T00:37:21;29.47;;;16.40;;
2213;SDS011;1113;42.018;23.986;2024-01-07T00:39:48;21.80;;;13.83;;
2213;SDS011;1113;42.018;23.986;2024-01-07T00:42:15;32.83;;;18.30;;
2213;SDS011;1113;42.018;23.986;2024-01-07T00:44:42;28.53;;;16.80;;
2213;SDS011;1113;42.018;23.986;2024-01-07T00:47:10;27.40;;;17.07;;
2213;SDS011;1113;42.018;23.986;2024-01-07T00:49:37;24.23;;;15.90;;
2213;SDS011;1113;42.018;23.986;2024-01-07T00:52:05;28.97;;;16.97;;
2213;SDS011;1113;42.018;23.986;2024-01-07T00:54:32;23.57;;;14.40;;
2213;SDS011;1113;42.018;23.986;2024-01-07T00:56:59;25.27;;;14.40;;
2213;SDS011;1113;42.018;23.986;2024-01-07T00:59:27;24.63;;;14.73;;
2213;SDS011;1113;42.018;23.986;2024-01-07T01:01:55;23.10;;;14.30;;
2213;SDS011;1113;42.018;23.986;2024-01-07T01:04:23;25.50;;;16.80;;
2213;SDS011;1113;42.018;23.986;2024-01-07T01:06:50;19.70;;;13.20;;
2213;SDS011;1113;42.018;23.986;2024-01-07T01:09:17;19.77;;;13.00;;
2213;SDS011;1113;42.018;23.986;2024-01-07T01:11:44;24.93;;;15.60;;
2213;SDS011;1113;42.018;23.986;2024-01-07T01:14:11;31.27;;;20.90;;
2213;SDS011;1113;42.018;23.986;2024-01-07T01:16:39;21.67;;;13.17;;
2213;SDS011;1113;42.018;23.986;2024-01-07T01:19:05;15.60;;;8.77;;
2213;SDS011;1113;42.018;23.986;2024-01-07T01:21:35;19.37;;;12.10;;
2213;SDS011;1113;42.018;23.986;2024-01-07T01:24:02;20.03;;;11.57;;
2213;SDS011;1113;42.018;23.986;2024-01-07T01:26:29;22.47;;;14.10;;
2213;SDS011;1113;42.018;23.986;2024-01-07T01:28:56;22.33;;;13.40;;
2213;SDS011;1113;42.018;23.986;2024-01-07T01:31:23;17.83;;;11.23;;
2213;SDS011;1113;42.018;23.986;2024-01-07T01:33:50;23.10;;;12.17;;
2213;SDS011;1113;42.018;23.986;2024-01-07T01:36:17;16.90;;;10.57;;
2213;SDS011;1113;42.018;23.986;2024-01-07T01:38:46;16.30;;;10.60;;
2213;SDS011;1113;42.018;23.986;2024-01-07T01:41:13;13.87;;;9.13;;
2213;SDS011;1113;42.018;23.986;2024-01-07T01:43:40;16.90;;;9.50;;
2213;SDS011;1113;42.018;23.986;2024-01-07T01:46:07;22.83;;;12.60;;
2213;SDS011;1113;42.018;23.986;2024-01-07T01:48:35;22.93;;;13.43;;
2213;SDS011;1113;42.018;23.986;2024-01-07T01:51:02;16.73;;;10.83;;
2213;SDS011;1113;42.018;23.986;2024-01-07T01:53:29;24.43;;;15.83;;
2213;SDS011;1113;42.018;23.986;2024-01-07T01:55:59;20.03;;;12.77;;
2213;SDS011;1113;42.018;23.986;2024-01-07T01:58:27;17.63;;;11.70;;
2213;SDS011;1113;42.018;23.986;2024-01-07T02:00:55;18.90;;;10.90;;
2213;SDS011;1113;42.018;23.986;2024-01-07T02:03:22;17.00;;;10.00;;
2213;SDS011;1113;42.018;23.986;2024-01-07T02:05:50;27.37;;;14.50;;
2213;SDS011;1113;42.018;23.986;2024-01-07T02:08:17;22.33;;;11.80;;
2213;SDS011;1113;42.018;23.986;2024-01-07T02:10:43;22.10;;;12.83;;
2213;SDS011;1113;42.018;23.986;2024-01-07T02:13:12;18.47;;;13.00;;
2213;SDS011;1113;42.018;23.986;2024-01-07T02:15:39;8.03;;;6.00;;
2213;SDS011;1113;42.018;23.986;2024-01-07T02:18:06;7.43;;;4.93;;
2213;SDS011;1113;42.018;23.986;2024-01-07T02:20:32;7.00;;;4.90;;
2213;SDS011;1113;42.018;23.986;2024-01-07T02:23:01;20.20;;;10.97;;
2213;SDS011;1113;42.018;23.986;2024-01-07T02:25:34;14.20;;;10.43;;
2213;SDS011;1113;42.018;23.986;2024-01-07T02:28:01;13.40;;;8.67;;
2213;SDS011;1113;42.018;23.986;2024-01-07T02:30:28;11.67;;;8.60;;
2213;SDS011;1113;42.018;23.986;2024-01-07T02:32:54;13.10;;;11.10;;
2213;SDS011;1113;42.018;23.986;2024-01-07T02:35:21;14.67;;;10.30;;
2213;SDS011;1113;42.018;23.986;2024-01-07T02:37:48;16.33;;;10.90;;
2213;SDS011;1113;42.018;23.986;2024-01-07T02:40:15;15.30;;;9.77;;
2213;SDS011;1113;42.018;23.986;2024-01-07T02:42:43;16.40;;;9.93;;
2213;SDS011;1113;42.018;23.986;2024-01-07T02:45:10;19.80;;;11.37;;
2213;SDS011;1113;42.018;23.986;2024-01-07T02:47:36;17.97;;;10.93;;
2213;SDS011;1113;42.018;23.986;2024-01-07T02:50:03;25.30;;;13.10;;
2213;SDS011;1113;42.018;23.986;2024-01-07T02:52:30;11.13;;;7.10;;
2213;SDS011;1113;42.018;23.986;2024-01-07T02:54:57;8.63;;;5.07;;
2213;SDS011;1113;42.018;23.986;2024-01-07T02:57:24;8.10;;;5.60;;
2213;SDS011;1113;42.018;23.986;2024-01-07T02:59:52;11.13;;;4.97;;
2213;SDS011;1113;42.018;23.986;2024-01-07T03:02:19;9.93;;;4.33;;
2213;SDS011;1113;42.018;23.986;2024-01-07T03:04:45;5.40;;;2.47;;
2213;SDS011;1113;42.018;23.986;2024-01-07T03:07:12;2.10;;;1.10;;
2213;SDS011;1113;42.018;23.986;2024-01-07T03:09:39;1.67;;;0.60;;
2213;SDS011;1113;42.018;23.986;2024-01-07T03:12:06;5.00;;;0.80;;
2213;SDS011;1113;42.018;23.986;2024-01-07T03:14:33;2.67;;;0.80;;
2213;SDS011;1113;42.018;23.986;2024-01-07T03:17:01;1.40;;;0.60;;
2213;SDS011;1113;42.018;23.986;2024-01-07T03:19:28;2.77;;;0.80;;
2213;SDS011;1113;42.018;23.986;2024-01-07T03:21:55;1.20;;;0.50;;
2213;SDS011;1113;42.018;23.986;2024-01-07T03:24:22;1.47;;;0.50;;
2213;SDS011;1113;42.018;23.986;2024-01-07T03:26:48;1.80;;;0.50;;
2213;SDS011;1113;42.018;23.986;2024-01-07T03:29:15;1.30;;;0.50;;
2213;SDS011;1113;42.018;23.986;2024-01-07T03:31:42;1.30;;;0.50;;
2213;SDS011;1113;42.018;23.986;2024-01-07T03:34:11;1.27;;;0.50;;
2213;SDS011;1113;42.018;23.986;2024-01-07T03:36:37;1.60;;;0.60;;
2213;SDS011;1113;42.018;23.986;2024-01-07T03:39:04;2.60;;;0.50;;
2213;SDS011;1113;42.018;23.986;2024-01-07T03:41:32;1.80;;;0.50;;
2213;SDS011;1113;42.018;23.986;2024-01-07T03:43:59;1.20;;;0.50;;
2213;SDS011;1113;42.018;23.986;2024-01-07T03:46:26;1.30;;;0.50;;
2213;SDS011;1113;42.018;23.986;2024-01-07T03:48:52;1.20;;;0.50;;
2213;SDS011;1113;42.018;23.986;2024-01-07T03:51:21;1.20;;;0.45;;
2213;SDS011;1113;42.018;23.986;2024-01-07T03:53:48;1.30;;;0.50;;
2213;SDS011;1113;42.018;23.986;2024-01-07T03:56:15;5.50;;;3.22;;
2213;SDS011;1113;42.018;23.986;2024-01-07T03:58:42;6.23;;;3.90;;
2213;SDS011;1113;42.018;23.986;2024-01-07T04:01:09;11.20;;;5.90;;
2213;SDS011;1113;42.018;23.986;2024-01-07T04:03:37;8.53;;;3.97;;
2213;SDS011;1113;42.018;23.986;2024-01-07T04:06:06;6.97;;;2.70;;
2213;SDS011;1113;42.018;23.986;2024-01-07T04:08:34;4.30;;;1.90;;
2213;SDS011;1113;42.018;23.986;2024-01-07T04:11:02;5.27;;;2.70;;
2213;SDS011;1113;42.018;23.986;2024-01-07T04:13:29;9.97;;;3.83;;
2213;SDS011;1113;42.018;23.986;2024-01-07T04:15:56;3.03;;;1.70;;
2213;SDS011;1113;42.018;23.986;2024-01-07T04:18:23;2.40;;;1.40;;
2213;SDS011;1113;42.018;23.986;2024-01-07T04:20:50;3.20;;;1.80;;
2213;SDS011;1113;42.018;23.986;2024-01-07T04:23:16;1.63;;;0.87;;
2213;SDS011;1113;42.018;23.986;2024-01-07T04:25:45;1.50;;;0.60;;
2213;SDS011;1113;42.018;23.986;2024-01-07T04:28:12;2.70;;;0.98;;
2213;SDS011;1113;42.018;23.986;2024-01-07T04:30:39;2.70;;;0.90;;
2213;SDS011;1113;42.018;23.986;2024-01-07T04:33:06;2.73;;;0.80;;
2213;SDS011;1113;42.018;23.986;2024-01-07T04:35:33;2.63;;;0.70;;
2213;SDS011;1113;42.018;23.986;2024-01-07T04:38:00;1.60;;;0.70;;
2213;SDS011;1113;42.018;23.986;2024-01-07T04:40:27;2.40;;;0.73;;
2213;SDS011;1113;42.018;23.986;2024-01-07T04:42:56;3.50;;;0.80;;
2213;SDS011;1113;42.018;23.986;2024-01-07T04:45:23;4.60;;;1.13;;
2213;SDS011;1113;42.018;23.986;2024-01-07T04:47:50;6.50;;;2.23;;
2213;SDS011;1113;42.018;23.986;2024-01-07T04:50:17;4.00;;;1.77;;
2213;SDS011;1113;42.018;23.986;2024-01-07T04:52:45;4.03;;;2.53;;
2213;SDS011;1113;42.018;23.986;2024-01-07T04:55:12;2.90;;;0.73;;
2213;SDS011;1113;42.018;23.986;2024-01-07T04:57:39;1.60;;;0.57;;
2213;SDS011;1113;42.018;23.986;2024-01-07T05:00:08;1.40;;;0.60;;
2213;SDS011;1113;42.018;23.986;2024-01-07T05:02:35;3.25;;;0.77;;
2213;SDS011;1113;42.018;23.986;2024-01-07T05:05:03;1.40;;;0.60;;
2213;SDS011;1113;42.018;23.986;2024-01-07T05:07:30;1.80;;;0.60;;
2213;SDS011;1113;42.018;23.986;2024-01-07T05:09:57;3.70;;;1.00;;
2213;SDS011;1113;42.018;23.986;2024-01-07T05:12:24;1.50;;;0.63;;
2213;SDS011;1113;42.018;23.986;2024-01-07T05:14:51;2.17;;;0.70;;
2213;SDS011;1113;42.018;23.986;2024-01-07T05:17:19;2.13;;;0.67;;
2213;SDS011;1113;42.018;23.986;2024-01-07T05:19:46;5.63;;;1.10;;
2213;SDS011;1113;42.018;23.986;2024-01-07T05:22:13;2.40;;;0.70;;
2213;SDS011;1113;42.018;23.986;2024-01-07T05:24:40;1.90;;;0.70;;
2213;SDS011;1113;42.018;23.986;2024-01-07T05:27:07;1.60;;;0.70;;
2213;SDS011;1113;42.018;23.986;2024-01-07T05:29:34;1.50;;;0.60;;
2213;SDS011;1113;42.018;23.986;2024-01-07T05:32:00;2.03;;;0.80;;
2213;SDS011;1113;42.018;23.986;2024-01-07T05:34:29;1.50;;;0.63;;
2213;SDS011;1113;42.018;23.986;2024-01-07T05:36:56;1.70;;;0.70;;
2213;SDS011;1113;42.018;23.986;2024-01-07T05:39:23;4.27;;;0.77;;
2213;SDS011;1113;42.018;23.986;2024-01-07T05:41:50;2.70;;;0.70;;
2213;SDS011;1113;42.018;23.986;2024-01-07T05:44:17;3.00;;;1.00;;
2213;SDS011;1113;42.018;23.986;2024-01-07T05:46:43;2.47;;;0.70;;
2213;SDS011;1113;42.018;23.986;2024-01-07T05:49:10;5.53;;;0.70;;
2213;SDS011;1113;42.018;23.986;2024-01-07T05:51:40;2.43;;;0.80;;
2213;SDS011;1113;42.018;23.986;2024-01-07T05:54:07;2.93;;;1.20;;
2213;SDS011;1113;42.018;23.986;2024-01-07T05:56:38;1.67;;;0.70;;
2213;SDS011;1113;42.018;23.986;2024-01-07T05:59:05;4.00;;;0.80;;
2213;SDS011;1113;42.018;23.986;2024-01-07T06:01:32;1.60;;;0.60;;
2213;SDS011;1113;42.018;23.986;2024-01-07T06:04:00;4.70;;;0.70;;
2213;SDS011;1113;42.018;23.986;2024-01-07T06:06:27;2.27;;;0.70;;
2213;SDS011;1113;42.018;23.986;2024-01-07T06:08:56;1.63;;;0.60;;
2213;SDS011;1113;42.018;23.986;2024-01-07T06:11:23;3.70;;;1.60;;
2213;SDS011;1113;42.018;23.986;2024-01-07T06:13:50;5.03;;;2.80;;
2213;SDS011;1113;42.018;23.986;2024-01-07T06:16:17;2.03;;;1.43;;
2213;SDS011;1113;42.018;23.986;2024-01-07T06:18:43;2.90;;;0.70;;
2213;SDS011;1113;42.018;23.986;2024-01-07T06:21:10;2.73;;;0.80;;
2213;SDS011;1113;42.018;23.986;2024-01-07T06:23:37;1.63;;;0.60;;
2213;SDS011;1113;42.018;23.986;2024-01-07T06:26:06;2.20;;;0.73;;
2213;SDS011;1113;42.018;23.986;2024-01-07T06:28:33;3.20;;;0.80;;
2213;SDS011;1113;42.018;23.986;2024-01-07T06:31:02;2.03;;;1.10;;
2213;SDS011;1113;42.018;23.986;2024-01-07T06:33:29;2.90;;;0.70;;
2213;SDS011;1113;42.018;23.986;2024-01-07T06:35:56;2.67;;;0.73;;
2213;SDS011;1113;42.018;23.986;2024-01-07T06:38:23;9.93;;;6.03;;
2213;SDS011;1113;42.018;23.986;2024-01-07T06:40:50;7.80;;;5.10;;
2213;SDS011;1113;42.018;23.986;2024-01-07T06:43:21;9.73;;;5.07;;
2213;SDS011;1113;42.018;23.986;2024-01-07T06:45:48;3.77;;;1.20;;
2213;SDS011;1113;42.018;23.986;2024-01-07T06:48:15;1.73;;;0.87;;
2213;SDS011;1113;42.018;23.986;2024-01-07T06:50:41;6.67;;;0.97;;
2213;SDS011;1113;42.018;23.986;2024-01-07T06:53:09;3.30;;;1.20;;
2213;SDS011;1113;42.018;23.986;2024-01-07T06:55:35;2.53;;;0.87;;
2213;SDS011;1113;42.018;23.986;2024-01-07T06:58:02;2.80;;;0.97;;
2213;SDS011;1113;42.018;23.986;2024-01-07T07:00:31;92.30;;;5.63;;
2213;SDS011;1113;42.018;23.986;2024-01-07T07:02:58;2.47;;;0.80;;
2213;SDS011;1113;42.018;23.986;2024-01-07T07:05:25;4.60;;;0.70;;
2213;SDS011;1113;42.018;23.986;2024-01-07T07:07:52;3.20;;;0.77;;
2213;SDS011;1113;42.018;23.986;2024-01-07T07:10:19;2.40;;;0.90;;
2213;SDS011;1113;42.018;23.986;2024-01-07T07:12:46;5.40;;;0.80;;
2213;SDS011;1113;42.018;23.986;2024-01-07T07:15:12;1.87;;;0.70;;
2213;SDS011;1113;42.018;23.986;2024-01-07T07:17:41;4.63;;;0.90;;
2213;SDS011;1113;42.018;23.986;2024-01-07T07:20:08;2.03;;;0.77;;
2213;SDS011;1113;42.018;23.986;2024-01-07T07:22:35;2.77;;;0.77;;
2213;SDS011;1113;42.018;23.986;2024-01-07T07:25:03;4.07;;;0.80;;
2213;SDS011;1113;42.018;23.986;2024-01-07T07:27:30;2.07;;;0.70;;
2213;SDS011;1113;42.018;23.986;2024-01-07T07:29:57;2.57;;;0.60;;
2213;SDS011;1113;42.018;23.986;2024-01-07T07:32:24;2.83;;;0.93;;
2213;SDS011;1113;42.018;23.986;2024-01-07T07:34:53;2.97;;;0.70;;
2213;SDS011;1113;42.018;23.986;2024-01-07T07:37:20;1.90;;;0.80;;
2213;SDS011;1113;42.018;23.986;2024-01-07T07:39:47;3.73;;;0.70;;
2213;SDS011;1113;42.018;23.986;2024-01-07T07:42:14;2.40;;;1.03;;
2213;SDS011;1113;42.018;23.986;2024-01-07T07:44:41;1.60;;;0.60;;
2213;SDS011;1113;42.018;23.986;2024-01-07T07:47:08;5.40;;;0.87;;
2213;SDS011;1113;42.018;23.986;2024-01-07T07:49:37;2.37;;;0.80;;
2213;SDS011;1113;42.018;23.986;2024-01-07T07:52:07;3.67;;;1.00;;
2213;SDS011;1113;42.018;23.986;2024-01-07T07:54:36;2.70;;;1.00;;
2213;SDS011;1113;42.018;23.986;2024-01-07T07:57:03;3.50;;;0.90;;
2213;SDS011;1113;42.018;23.986;2024-01-07T07:59:30;2.50;;;0.73;;
2213;SDS011;1113;42.018;23.986;2024-01-07T08:01:57;2.30;;;1.00;;
2213;SDS011;1113;42.018;23.986;2024-01-07T08:04:24;1.53;;;0.80;;
2213;SDS011;1113;42.018;23.986;2024-01-07T08:06:52;8.07;;;0.87;;
2213;SDS011;1113;42.018;23.986;2024-01-07T08:09:20;3.57;;;0.97;;
2213;SDS011;1113;42.018;23.986;2024-01-07T08:11:48;2.10;;;0.87;;
2213;SDS011;1113;42.018;23.986;2024-01-07T08:14:15;5.23;;;1.20;;
2213;SDS011;1113;42.018;23.986;2024-01-07T08:16:42;5.93;;;2.40;;
2213;SDS011;1113;42.018;23.986;2024-01-07T08:19:09;3.93;;;1.83;;
2213;SDS011;1113;42.018;23.986;2024-01-07T08:21:36;3.57;;;0.73;;
2213;SDS011;1113;42.018;23.986;2024-01-07T08:24:03;1.70;;;0.70;;
2213;SDS011;1113;42.018;23.986;2024-01-07T08:26:32;2.43;;;0.90;;
2213;SDS011;1113;42.018;23.986;2024-01-07T08:28:59;5.73;;;1.00;;
2213;SDS011;1113;42.018;23.986;2024-01-07T08:31:26;4.80;;;2.70;;
2213;SDS011;1113;42.018;23.986;2024-01-07T08:33:53;13.47;;;9.57;;
2213;SDS011;1113;42.018;23.986;2024-01-07T08:36:20;1.70;;;0.70;;
2213;SDS011;1113;42.018;23.986;2024-01-07T08:38:47;5.63;;;2.60;;
2213;SDS011;1113;42.018;23.986;2024-01-07T08:41:15;8.17;;;3.80;;
2213;SDS011;1113;42.018;23.986;2024-01-07T08:43:43;5.97;;;2.23;;
2213;SDS011;1113;42.018;23.986;2024-01-07T08:46:11;5.00;;;2.43;;
2213;SDS011;1113;42.018;23.986;2024-01-07T08:48:39;1.87;;;0.87;;
2213;SDS011;1113;42.018;23.986;2024-01-07T08:51:06;2.23;;;1.17;;
2213;SDS011;1113;42.018;23.986;2024-01-07T08:53:33;6.30;;;2.37;;
2213;SDS011;1113;42.018;23.986;2024-01-07T08:56:00;10.20;;;4.20;;
2213;SDS011;1113;42.018;23.986;2024-01-07T08:58:27;5.20;;;1.90;;
2213;SDS011;1113;42.018;23.986;2024-01-07T09:00:55;4.67;;;2.00;;
2213;SDS011;1113;42.018;23.986;2024-01-07T09:03:22;3.43;;;1.80;;
2213;SDS011;1113;42.018;23.986;2024-01-07T09:05:49;3.87;;;1.47;;
2213;SDS011;1113;42.018;23.986;2024-01-07T09:08:16;3.60;;;0.80;;
2213;SDS011;1113;42.018;23.986;2024-01-07T09:10:43;4.40;;;1.00;;
2213;SDS011;1113;42.018;23.986;2024-01-07T09:13:10;4.37;;;1.50;;
2213;SDS011;1113;42.018;23.986;2024-01-07T09:15:37;7.30;;;1.07;;
2213;SDS011;1113;42.018;23.986;2024-01-07T09:18:10;3.17;;;0.70;;
2213;SDS011;1113;42.018;23.986;2024-01-07T09:20:37;1.93;;;0.80;;
2213;SDS011;1113;42.018;23.986;2024-01-07T09:23:04;2.30;;;0.80;;
2213;SDS011;1113;42.018;23.986;2024-01-07T09:25:31;2.13;;;0.80;;
2213;SDS011;1113;42.018;23.986;2024-01-07T09:27:58;2.20;;;0.60;;
2213;SDS011;1113;42.018;23.986;2024-01-07T09:30:25;3.53;;;0.93;;
2213;SDS011;1113;42.018;23.986;2024-01-07T09:32:52;3.40;;;1.60;;
2213;SDS011;1113;42.018;23.986;2024-01-07T09:35:21;2.87;;;1.43;;
2213;SDS011;1113;42.018;23.986;2024-01-07T09:37:48;2.77;;;0.80;;
2213;SDS011;1113;42.018;23.986;2024-01-07T09:40:16;2.03;;;0.57;;
2213;SDS011;1113;42.018;23.986;2024-01-07T09:42:44;5.73;;;1.07;;
2213;SDS011;1113;42.018;23.986;2024-01-07T09:45:12;1.60;;;0.70;;
2213;SDS011;1113;42.018;23.986;2024-01-07T09:47:39;3.20;;;0.80;;
2213;SDS011;1113;42.018;23.986;2024-01-07T09:50:06;1.50;;;0.50;;
2213;SDS011;1113;42.018;23.986;2024-01-07T09:52:36;1.50;;;0.50;;
2213;SDS011;1113;42.018;23.986;2024-01-07T09:55:04;1.50;;;0.60;;
2213;SDS011;1113;42.018;23.986;2024-01-07T09:57:34;1.60;;;0.80;;
2213;SDS011;1113;42.018;23.986;2024-01-07T10:00:01;1.60;;;0.50;;
2213;SDS011;1113;42.018;23.986;2024-01-07T10:02:29;1.63;;;0.67;;
2213;SDS011;1113;42.018;23.986;2024-01-07T10:04:56;2.87;;;0.80;;
2213;SDS011;1113;42.018;23.986;2024-01-07T10:07:23;1.40;;;0.50;;
2213;SDS011;1113;42.018;23.986;2024-01-07T10:09:52;1.50;;;0.60;;
2213;SDS011;1113;42.018;23.986;2024-01-07T10:12:22;1.47;;;0.70;;
2213;SDS011;1113;42.018;23.986;2024-01-07T10:14:49;1.30;;;0.50;;
2213;SDS011;1113;42.018;23.986;2024-01-07T10:17:16;1.30;;;0.50;;
2213;SDS011;1113;42.018;23.986;2024-01-07T10:19:44;2.07;;;0.60;;
2213;SDS011;1113;42.018;23.986;2024-01-07T10:22:12;2.13;;;0.50;;
2213;SDS011;1113;42.018;23.986;2024-01-07T10:24:40;1.30;;;0.47;;
2213;SDS011;1113;42.018;23.986;2024-01-07T10:27:08;1.30;;;0.50;;
2213;SDS011;1113;42.018;23.986;2024-01-07T10:29:35;1.30;;;0.50;;
2213;SDS011;1113;42.018;23.986;2024-01-07T10:32:03;1.30;;;0.50;;
2213;SDS011;1113;42.018;23.986;2024-01-07T10:34:31;1.67;;;0.50;;
2213;SDS011;1113;42.018;23.986;2024-01-07T10:36:58;1.30;;;0.50;;
2213;SDS011;1113;42.018;23.986;2024-01-07T10:39:25;1.50;;;0.60;;
2213;SDS011;1113;42.018;23.986;2024-01-07T10:41:52;1.40;;;0.50;;
2213;SDS011;1113;42.018;23.986;2024-01-07T10:44:25;1.37;;;0.53;;
2213;SDS011;1113;42.018;23.986;2024-01-07T10:46:53;1.40;;;0.60;;
2213;SDS011;1113;42.018;23.986;2024-01-07T10:49:20;1.40;;;0.50;;
2213;SDS011;1113;42.018;23.986;2024-01-07T10:51:49;1.70;;;0.80;;
2213;SDS011;1113;42.018;23.986;2024-01-07T10:54:20;1.80;;;0.57;;
2213;SDS011;1113;42.018;23.986;2024-01-07T10:56:48;1.60;;;0.60;;
2213;SDS011;1113;42.018;23.986;2024-01-07T10:59:16;1.60;;;0.60;;
2213;SDS011;1113;42.018;23.986;2024-01-07T11:01:46;1.97;;;0.60;;
2213;SDS011;1113;42.018;23.986;2024-01-07T11:04:15;2.00;;;0.70;;
2213;SDS011;1113;42.018;23.986;2024-01-07T11:06:46;4.40;;;0.60;;
2213;SDS011;1113;42.018;23.986;2024-01-07T11:09:17;1.77;;;0.60;;
2213;SDS011;1113;42.018;23.986;2024-01-07T11:11:45;2.37;;;0.50;;
2213;SDS011;1113;42.018;23.986;2024-01-07T11:17:00;1.40;;;0.50;;
2213;SDS011;1113;42.018;23.986;2024-01-07T11:19:29;1.50;;;0.50;;
2213;SDS011;1113;42.018;23.986;2024-01-07T11:24:38;1.60;;;0.60;;
2213;SDS011;1113;42.018;23.986;2024-01-07T11:27:08;1.30;;;0.40;;
2213;SDS011;1113;42.018;23.986;2024-01-07T11:29:35;1.53;;;0.50;;
2213;SDS011;1113;42.018;23.986;2024-01-07T11:32:03;2.50;;;0.50;;
2213;SDS011;1113;42.018;23.986;2024-01-07T11:34:38;1.40;;;0.50;;
2213;SDS011;1113;42.018;23.986;2024-01-07T11:37:07;1.30;;;0.50;;
2213;SDS011;1113;42.018;23.986;2024-01-07T11:39:34;2.20;;;0.80;;
2213;SDS011;1113;42.018;23.986;2024-01-07T11:42:02;1.60;;;0.83;;
2213;SDS011;1113;42.018;23.986;2024-01-07T11:44:30;1.50;;;0.50;;
2213;SDS011;1113;42.018;23.986;2024-01-07T11:46:59;5.63;;;1.67;;
2213;SDS011;1113;42.018;23.986;2024-01-07T11:49:28;1.30;;;0.40;;
2213;SDS011;1113;42.018;23.986;2024-01-07T11:51:54;1.60;;;0.70;;
2213;SDS011;1113;42.018;23.986;2024-01-07T11:54:21;4.70;;;1.43;;
2213;SDS011;1113;42.018;23.986;2024-01-07T11:56:48;6.07;;;2.60;;
2213;SDS011;1113;42.018;23.986;2024-01-07T11:59:15;2.77;;;1.13;;
2213;SDS011;1113;42.018;23.986;2024-01-07T12:01:42;7.40;;;2.73;;
2213;SDS011;1113;42.018;23.986;2024-01-07T12:04:09;5.70;;;2.47;;
2213;SDS011;1113;42.018;23.986;2024-01-07T12:06:40;1.87;;;0.80;;
2213;SDS011;1113;42.018;23.986;2024-01-07T12:09:07;1.40;;;0.60;;
2213;SDS011;1113;42.018;23.986;2024-01-07T12:11:34;1.40;;;0.57;;
2213;SDS011;1113;42.018;23.986;2024-01-07T12:14:01;1.20;;;0.40;;
2213;SDS011;1113;42.018;23.986;2024-01-07T12:16:29;3.10;;;1.23;;
2213;SDS011;1113;42.018;23.986;2024-01-07T12:18:56;2.33;;;0.70;;
2213;SDS011;1113;42.018;23.986;2024-01-07T12:21:23;2.43;;;0.80;;
2213;SDS011;1113;42.018;23.986;2024-01-07T12:23:53;2.80;;;0.50;;
2213;SDS011;1113;42.018;23.986;2024-01-07T12:26:25;1.30;;;0.53;;
2213;SDS011;1113;42.018;23.986;2024-01-07T12:28:52;1.40;;;0.60;;
2213;SDS011;1113;42.018;23.986;2024-01-07T12:31:20;1.40;;;0.50;;
2213;SDS011;1113;42.018;23.986;2024-01-07T12:33:47;2.23;;;0.80;;
2213;SDS011;1113;42.018;23.986;2024-01-07T12:36:14;2.07;;;0.80;;
2213;SDS011;1113;42.018;23.986;2024-01-07T12:38:41;3.37;;;1.73;;
2213;SDS011;1113;42.018;23.986;2024-01-07T12:41:10;3.27;;;2.10;;
2213;SDS011;1113;42.018;23.986;2024-01-07T12:43:37;1.80;;;0.80;;
2213;SDS011;1113;42.018;23.986;2024-01-07T12:46:04;2.70;;;1.10;;
2213;SDS011;1113;42.018;23.986;2024-01-07T12:48:31;18.60;;;12.67;;
2213;SDS011;1113;42.018;23.986;2024-01-07T12:51:00;7.13;;;2.10;;
2213;SDS011;1113;42.018;23.986;2024-01-07T12:53:28;3.50;;;1.73;;
2213;SDS011;1113;42.018;23.986;2024-01-07T12:55:55;1.40;;;0.50;;
2213;SDS011;1113;42.018;23.986;2024-01-07T12:58:24;1.30;;;0.50;;
2213;SDS011;1113;42.018;23.986;2024-01-07T13:00:52;2.47;;;0.60;;
2213;SDS011;1113;42.018;23.986;2024-01-07T13:03:19;1.80;;;0.60;;
2213;SDS011;1113;42.018;23.986;2024-01-07T13:05:46;1.50;;;0.60;;
2213;SDS011;1113;42.018;23.986;2024-01-07T13:08:15;2.57;;;1.00;;
2213;SDS011;1113;42.018;23.986;2024-01-07T13:10:43;1.30;;;0.50;;
2213;SDS011;1113;42.018;23.986;2024-01-07T13:13:11;1.30;;;0.50;;
2213;SDS011;1113;42.018;23.986;2024-01-07T13:15:39;1.60;;;0.50;;
2213;SDS011;1113;42.018;23.986;2024-01-07T13:18:07;3.70;;;2.17;;
2213;SDS011;1113;42.018;23.986;2024-01-07T13:20:34;2.03;;;0.83;;
2213;SDS011;1113;42.018;23.986;2024-01-07T13:23:03;1.40;;;0.50;;
2213;SDS011;1113;42.018;23.986;2024-01-07T13:25:30;2.57;;;0.60;;
2213;SDS011;1113;42.018;23.986;2024-01-07T13:27:57;1.50;;;0.60;;
2213;SDS011;1113;42.018;23.986;2024-01-07T13:30:24;1.50;;;0.50;;
2213;SDS011;1113;42.018;23.986;2024-01-07T13:32:53;1.90;;;1.00;;
2213;SDS011;1113;42.018;23.986;2024-01-07T13:35:22;1.30;;;0.47;;
2213;SDS011;1113;42.018;23.986;2024-01-07T13:37:50;1.40;;;0.50;;
2213;SDS011;1113;42.018;23.986;2024-01-07T13:40:17;3.37;;;0.53;;
2213;SDS011;1113;42.018;23.986;2024-01-07T13:42:44;1.53;;;0.60;;
2213;SDS011;1113;42.018;23.986;2024-01-07T13:45:11;1.23;;;0.40;;
2213;SDS011;1113;42.018;23.986;2024-01-07T13:47:38;2.03;;;0.60;;
2213;SDS011;1113;42.018;23.986;2024-01-07T13:50:07;1.67;;;0.60;;
2213;SDS011;1113;42.018;23.986;2024-01-07T13:52:36;2.77;;;0.80;;
2213;SDS011;1113;42.018;23.986;2024-01-07T13:55:03;1.50;;;0.60;;
2213;SDS011;1113;42.018;23.986;2024-01-07T13:57:30;1.30;;;0.60;;
2213;SDS011;1113;42.018;23.986;2024-01-07T13:59:57;1.43;;;0.60;;
2213;SDS011;1113;42.018;23.986;2024-01-07T14:02:24;2.23;;;0.60;;
2213;SDS011;1113;42.018;23.986;2024-01-07T14:04:51;1.40;;;0.60;;
2213;SDS011;1113;42.018;23.986;2024-01-07T14:07:21;1.40;;;0.50;;
2213;SDS011;1113;42.018;23.986;2024-01-07T14:09:49;2.27;;;0.80;;
2213;SDS011;1113;42.018;23.986;2024-01-07T14:12:17;3.23;;;1.47;;
2213;SDS011;1113;42.018;23.986;2024-01-07T14:14:44;2.57;;;0.70;;
2213;SDS011;1113;42.018;23.986;2024-01-07T14:17:11;2.50;;;1.10;;
2213;SDS011;1113;42.018;23.986;2024-01-07T14:19:38;2.97;;;0.73;;
2213;SDS011;1113;42.018;23.986;2024-01-07T14:22:05;1.43;;;0.40;;
2213;SDS011;1113;42.018;23.986;2024-01-07T14:24:33;2.73;;;0.60;;
2213;SDS011;1113;42.018;23.986;2024-01-07T14:27:00;1.30;;;0.50;;
2213;SDS011;1113;42.018;23.986;2024-01-07T14:29:27;1.30;;;0.50;;
2213;SDS011;1113;42.018;23.986;2024-01-07T14:31:54;1.43;;;0.50;;
2213;SDS011;1113;42.018;23.986;2024-01-07T14:34:21;1.50;;;0.50;;
2213;SDS011;1113;42.018;23.986;2024-01-07T14:36:48;1.40;;;0.60;;
2213;SDS011;1113;42.018;23.986;2024-01-07T14:39:15;2.40;;;0.90;;
2213;SDS011;1113;42.018;23.986;2024-01-07T14:41:46;1.30;;;0.50;;
2213;SDS011;1113;42.018;23.986;2024-01-07T14:44:13;1.50;;;0.50;;
2213;SDS011;1113;42.018;23.986;2024-01-07T14:46:40;1.80;;;0.80;;
2213;SDS011;1113;42.018;23.986;2024-01-07T14:49:06;1.90;;;0.60;;
2213;SDS011;1113;42.018;23.986;2024-01-07T14:51:33;2.60;;;1.13;;
2213;SDS011;1113;42.018;23.986;2024-01-07T14:54:00;1.30;;;0.40;;
2213;SDS011;1113;42.018;23.986;2024-01-07T14:56:27;1.50;;;0.50;;
2213;SDS011;1113;42.018;23.986;2024-01-07T14:58:55;2.80;;;0.60;;
2213;SDS011;1113;42.018;23.986;2024-01-07T15:01:22;3.20;;;0.50;;